KTB weather

Thorne Bay Seaplane Base
Thorne Bay, Alaska, United States

Public forecast

Using degrees Fahrenheit for public forecast. Weather courtesy of forecast.io.

METAR (pilot weather report)

Closest report is Klawock Airport, 19.4 nm (35.9 km) WSW. Retrieved 2019/07/19 10:53 UTC (31 minutes ago):

PAKW 191053Z AUTO 05003KT 10SM OVC019 13/13 A3001 RMK SLP160 T01330128 TSNO VIA AUTODIAL

TAF (pilot weather forecast)

Closest forecast is Klawock Airport, 19.4 nm (35.9 km) WSW. Retrieved 2019/07/19 06:36 UTC (5 hours ago):

TAF PAKW 190533Z 1906/2006 22006KT P6SM BKN050 FM190900 VRB03KT P6SM SCT010 BKN015 OVC040 TEMPO 1912/1915 6SM BR BKN009 OVC015 FM191800 22005KT P6SM SCT015 OVC040 AMD LTD TO CLD VIS AND WIND